Time;durP1;ratioP1;P1;durP2;ratioP2;P2;SDS_P1;SDS_P2;PMS_P1;PMS_P2;Temp;Humidity;BMP_temperature;BMP_pressure;BME280_temperature;BME280_humidity;BME280_pressure;Samples;Min_cycle;Max_cycle;Signal;HPM_P1;HPM_P2
2023/09/11 00:01:35;;;;;;;17.13;16.52;;;21.60;99.90;;;;;;5013335;28;20201;-62
2023/09/11 00:04:02;;;;;;;19.83;19.08;;;21.60;99.90;;;;;;5013753;28;20275;-63
2023/09/11 00:06:30;;;;;;;15.55;14.95;;;21.60;99.90;;;;;;5017514;28;20197;-62
2023/09/11 00:09:00;;;;;;;16.05;15.45;;;21.60;99.90;;;;;;5015307;28;20221;-62
2023/09/11 00:11:26;;;;;;;15.50;14.90;;;21.60;99.90;;;;;;5012476;28;20209;-62
2023/09/11 00:13:53;;;;;;;17.90;17.20;;;21.60;99.90;;;;;;5012292;28;20228;-62
2023/09/11 00:16:20;;;;;;;16.05;15.45;;;21.50;99.90;;;;;;5015710;28;20209;-63
2023/09/11 00:18:47;;;;;;;17.35;16.75;;;21.60;99.90;;;;;;5024608;28;20229;-62
2023/09/11 00:21:14;;;;;;;24.02;23.08;;;21.60;99.90;;;;;;5012155;28;20205;-63
2023/09/11 00:23:42;;;;;;;19.17;18.45;;;21.50;99.90;;;;;;5011949;28;20201;-62
2023/09/11 00:26:08;;;;;;;22.83;21.92;;;21.60;99.90;;;;;;5011901;28;20205;-63
2023/09/11 00:28:35;;;;;;;15.23;14.68;;;21.40;99.90;;;;;;5012476;28;20201;-63
2023/09/11 00:31:02;;;;;;;19.60;18.83;;;21.50;99.90;;;;;;5012149;28;20221;-62
2023/09/11 00:33:29;;;;;;;17.27;16.58;;;21.40;99.90;;;;;;5011695;28;20205;-62
2023/09/11 00:35:56;;;;;;;18.27;17.60;;;21.40;99.90;;;;;;5011894;28;20211;-63
2023/09/11 00:38:22;;;;;;;22.48;21.60;;;21.50;99.90;;;;;;5020059;28;20228;-62
2023/09/11 00:40:51;;;;;;;18.25;17.55;;;21.40;99.90;;;;;;5011694;28;20240;-62
2023/09/11 00:43:18;;;;;;;15.20;14.70;;;21.50;99.90;;;;;;5012105;28;20205;-62
2023/09/11 00:45:46;;;;;;;17.08;16.38;;;21.50;99.90;;;;;;5012099;28;20205;-62
2023/09/11 00:48:14;;;;;;;17.88;17.27;;;21.50;99.90;;;;;;5022413;28;20254;-63
2023/09/11 00:50:43;;;;;;;16.88;16.27;;;21.50;99.90;;;;;;5017333;28;20221;-62
2023/09/11 00:53:11;;;;;;;16.98;16.27;;;21.40;99.90;;;;;;5020706;28;20215;-63
2023/09/11 00:55:39;;;;;;;17.90;17.30;;;21.30;99.90;;;;;;5041462;28;20652;-63
2023/09/11 00:58:07;;;;;;;16.20;15.60;;;21.30;99.90;;;;;;5049653;28;20284;-63
2023/09/11 01:00:34;;;;;;;17.98;17.30;;;21.40;99.90;;;;;;5027442;28;20317;-63
2023/09/11 01:03:01;;;;;;;16.98;16.38;;;21.40;99.90;;;;;;5032696;28;20231;-62
2023/09/11 01:05:30;;;;;;;19.02;18.35;;;21.40;99.90;;;;;;5041680;28;20204;-62
2023/09/11 01:07:57;;;;;;;19.67;18.98;;;21.30;99.90;;;;;;5023511;28;20213;-63
2023/09/11 01:10:24;;;;;;;15.40;14.82;;;21.30;99.90;;;;;;5023797;28;20221;-63
2023/09/11 01:12:51;;;;;;;15.63;15.07;;;21.30;99.90;;;;;;5027282;28;20215;-63
2023/09/11 01:15:19;;;;;;;16.77;16.17;;;21.30;99.90;;;;;;5024532;28;20213;-63
2023/09/11 01:17:52;;;;;;;17.27;16.67;;;21.30;99.90;;;;;;5015704;28;20229;-63
2023/09/11 01:20:36;;;;;;;15.95;15.38;;;21.30;99.90;;;;;;5018238;28;20221;-62
2023/09/11 01:23:30;;;;;;;15.00;14.45;;;21.30;99.90;;;;;;5021790;28;20207;-62
2023/09/11 01:26:11;;;;;;;17.67;17.05;;;21.30;99.90;;;;;;5017401;28;20293;-62
2023/09/11 01:29:03;;;;;;;20.40;19.65;;;21.30;99.90;;;;;;5022553;28;20247;-63
2023/09/11 01:31:32;;;;;;;16.77;16.17;;;21.20;99.90;;;;;;5026444;28;20205;-63
2023/09/11 01:34:01;;;;;;;15.82;15.25;;;21.20;99.90;;;;;;5017601;28;20205;-63
2023/09/11 01:36:28;;;;;;;15.98;15.40;;;21.20;99.90;;;;;;5019553;28;20207;-63
2023/09/11 01:38:55;;;;;;;14.20;13.70;;;21.10;99.90;;;;;;5026997;28;20227;-62
2023/09/11 01:41:25;;;;;;;18.08;17.42;;;21.10;99.90;;;;;;5031431;28;20209;-62
2023/09/11 01:43:55;;;;;;;19.45;18.75;;;21.20;99.90;;;;;;5014906;28;20205;-63
2023/09/11 01:46:21;;;;;;;16.67;16.08;;;21.10;99.90;;;;;;5016017;28;20212;-62
2023/09/11 01:48:51;;;;;;;17.05;16.45;;;21.10;99.90;;;;;;5015197;28;20198;-62
2023/09/11 01:51:19;;;;;;;15.85;15.25;;;21.10;99.90;;;;;;5015227;28;20649;-63
2023/09/11 01:53:47;;;;;;;15.48;14.77;;;21.00;99.90;;;;;;5014310;28;20205;-62
2023/09/11 01:56:15;;;;;;;15.20;14.60;;;21.10;99.90;;;;;;5016171;28;20212;-64
2023/09/11 01:58:43;;;;;;;15.57;15.07;;;21.20;99.90;;;;;;5034169;28;20743;-63
2023/09/11 02:01:11;;;;;;;13.52;12.98;;;21.20;99.90;;;;;;5033896;28;20301;-63
2023/09/11 02:03:40;;;;;;;15.32;14.80;;;21.30;99.90;;;;;;5027954;28;20667;-63
2023/09/11 02:06:06;;;;;;;16.90;16.30;;;21.20;99.90;;;;;;5015907;28;20205;-61
2023/09/11 02:08:33;;;;;;;16.45;15.88;;;21.10;99.90;;;;;;5014378;28;20201;-63
2023/09/11 02:10:59;;;;;;;16.48;15.88;;;21.10;99.90;;;;;;5014874;28;20232;-62
2023/09/11 02:13:26;;;;;;;29.63;28.55;;;21.10;99.90;;;;;;5018111;28;20201;-62
2023/09/11 02:15:53;;;;;;;34.10;32.85;;;21.00;99.90;;;;;;5026863;28;20205;-62
2023/09/11 02:18:21;;;;;;;29.75;28.67;;;20.80;99.90;;;;;;5020556;28;20208;-62
2023/09/11 02:20:48;;;;;;;32.00;30.80;;;20.60;99.90;;;;;;5015593;28;20229;-62
2023/09/11 02:23:15;;;;;;;31.60;30.50;;;20.40;99.90;;;;;;5014549;28;20209;-63
2023/09/11 02:25:42;;;;;;;35.17;33.90;;;20.20;99.90;;;;;;5014490;28;20664;-63
2023/09/11 02:28:09;;;;;;;34.65;33.42;;;20.10;99.90;;;;;;5014383;28;20608;-63
2023/09/11 02:30:36;;;;;;;28.75;27.70;;;20.10;99.90;;;;;;5014309;28;20224;-63
2023/09/11 02:33:03;;;;;;;29.95;28.85;;;20.00;99.90;;;;;;5013918;28;20207;-63
2023/09/11 02:35:31;;;;;;;38.00;36.65;;;20.00;99.90;;;;;;5014265;28;20205;-63
2023/09/11 02:37:58;;;;;;;39.13;37.65;;;20.00;99.90;;;;;;5014139;28;20208;-63
2023/09/11 02:40:25;;;;;;;31.63;30.50;;;20.00;99.90;;;;;;5013997;28;20352;-62
2023/09/11 02:42:52;;;;;;;27.45;26.48;;;19.90;99.90;;;;;;5028920;28;20211;-62
2023/09/11 02:45:18;;;;;;;32.70;31.50;;;19.90;99.90;;;;;;5025508;28;20224;-63
2023/09/11 02:47:45;;;;;;;31.33;30.17;;;19.80;99.90;;;;;;5019457;28;20213;-62
2023/09/11 02:50:12;;;;;;;29.90;28.85;;;19.80;99.90;;;;;;5014340;28;20231;-62
2023/09/11 02:52:42;;;;;;;40.97;39.47;;;19.80;99.90;;;;;;5014240;28;20202;-63
2023/09/11 02:55:11;;;;;;;35.88;34.63;;;19.70;99.90;;;;;;5014192;28;20582;-62
2023/09/11 02:57:38;;;;;;;33.10;31.90;;;19.60;99.90;;;;;;5014272;28;20205;-63
2023/09/11 03:00:08;;;;;;;31.73;30.55;;;19.50;99.90;;;;;;5022130;28;20691;-62
2023/09/11 03:02:35;;;;;;;39.95;38.33;;;19.50;99.90;;;;;;5013929;28;20301;-62
2023/09/11 03:05:02;;;;;;;29.95;28.85;;;19.50;99.90;;;;;;5022421;28;20225;-63
2023/09/11 03:07:28;;;;;;;32.53;31.33;;;19.50;99.90;;;;;;5025715;28;20284;-63
2023/09/11 03:09:56;;;;;;;41.05;39.55;;;19.50;99.90;;;;;;5022654;28;20698;-62
2023/09/11 03:12:23;;;;;;;34.05;32.70;;;19.50;99.90;;;;;;5028687;28;20205;-61
2023/09/11 03:14:52;;;;;;;43.15;41.58;;;19.50;99.90;;;;;;5015040;28;20208;-63
2023/09/11 03:17:19;;;;;;;57.85;55.67;;;19.40;99.90;;;;;;5013959;28;20745;-62
2023/09/11 03:19:45;;;;;;;49.85;48.05;;;19.40;99.90;;;;;;5012564;28;20233;-62
2023/09/11 03:22:12;;;;;;;56.17;54.20;;;19.40;99.90;;;;;;5013928;28;20580;-61
2023/09/11 03:24:39;;;;;;;35.10;33.70;;;19.30;99.90;;;;;;5013390;28;20249;-63
2023/09/11 03:27:07;;;;;;;45.45;43.58;;;19.30;99.90;;;;;;5013104;28;20675;-61
2023/09/11 03:29:34;;;;;;;43.90;42.30;;;19.20;99.90;;;;;;5013154;28;20225;-63
2023/09/11 03:32:01;;;;;;;45.90;44.20;;;19.20;99.90;;;;;;5020998;28;20234;-62
2023/09/11 03:34:27;;;;;;;39.10;37.67;;;19.20;99.90;;;;;;5013310;28;20204;-62
2023/09/11 03:36:54;;;;;;;46.95;45.25;;;19.10;99.90;;;;;;5019900;28;20204;-63
2023/09/11 03:41:49;;;;;;;37.97;36.58;;;18.90;99.90;;;;;;5046774;28;20681;-62
2023/09/11 03:44:17;;;;;;;42.92;41.33;;;18.90;99.90;;;;;;5045304;28;20211;-64
2023/09/11 03:46:44;;;;;;;44.20;42.53;;;18.90;99.90;;;;;;5045757;28;20200;-64
2023/09/11 03:49:10;;;;;;;47.60;45.90;;;19.00;99.90;;;;;;5044609;28;20200;-64
2023/09/11 03:51:37;;;;;;;40.38;38.92;;;19.00;99.90;;;;;;5022756;28;20210;-64
2023/09/11 03:54:08;;;;;;;63.63;61.35;;;19.10;99.90;;;;;;5030192;28;20204;-64
2023/09/11 03:56:35;;;;;;;65.57;62.97;;;19.00;99.90;;;;;;5022108;28;20295;-63
2023/09/11 03:59:02;;;;;;;44.85;43.28;;;18.90;99.90;;;;;;5022333;28;20229;-63
2023/09/11 04:01:30;;;;;;;33.30;32.10;;;18.90;99.90;;;;;;5021927;28;20316;-63
2023/09/11 04:03:57;;;;;;;42.80;41.28;;;18.90;99.90;;;;;;5022102;28;20296;-61
2023/09/11 04:06:24;;;;;;;38.38;37.00;;;18.80;99.90;;;;;;5024673;28;20650;-60
2023/09/11 04:08:52;;;;;;;40.38;38.92;;;18.80;99.90;;;;;;5025325;28;20227;-60
2023/09/11 04:11:20;;;;;;;40.85;39.38;;;18.60;99.90;;;;;;5023715;28;20568;-61
2023/09/11 04:13:47;;;;;;;38.63;37.23;;;18.60;99.90;;;;;;5022178;28;20216;-60
2023/09/11 04:16:15;;;;;;;39.95;38.50;;;18.70;99.90;;;;;;5015029;28;20637;-61
2023/09/11 04:18:43;;;;;;;41.85;40.30;;;18.60;99.90;;;;;;5025639;28;20212;-61
2023/09/11 04:21:10;;;;;;;37.53;36.13;;;18.70;99.90;;;;;;5024818;28;20319;-61
2023/09/11 04:23:37;;;;;;;42.70;41.13;;;18.50;99.90;;;;;;5021623;28;20273;-63
2023/09/11 04:26:06;;;;;;;45.27;43.63;;;18.50;99.90;;;;;;5021766;28;20212;-61
2023/09/11 04:28:33;;;;;;;62.93;60.50;;;18.70;99.90;;;;;;5022040;28;20197;-63
2023/09/11 04:30:59;;;;;;;44.72;43.03;;;18.80;99.90;;;;;;5020359;28;20582;-63
2023/09/11 04:33:27;;;;;;;54.08;52.03;;;18.90;99.90;;;;;;5023144;28;20205;-60
2023/09/11 04:35:55;;;;;;;82.95;79.68;;;18.90;99.90;;;;;;5021117;28;20205;-61
2023/09/11 04:38:22;;;;;;;55.97;53.88;;;19.00;99.90;;;;;;5022467;28;20205;-63
2023/09/11 04:40:49;;;;;;;52.88;50.83;;;19.00;99.90;;;;;;5023661;28;20316;-62
2023/09/11 04:43:16;;;;;;;53.10;51.13;;;19.00;99.90;;;;;;5022208;28;20240;-62
2023/09/11 04:45:42;;;;;;;49.63;47.83;;;19.00;99.90;;;;;;5020744;28;20289;-62
2023/09/11 04:48:09;;;;;;;43.03;41.47;;;19.00;99.90;;;;;;5023506;28;20212;-61
2023/09/11 04:50:36;;;;;;;60.10;57.77;;;19.10;99.90;;;;;;5022437;28;20219;-61
2023/09/11 04:53:04;;;;;;;40.97;39.35;;;19.10;99.90;;;;;;5023270;28;20681;-63
2023/09/11 04:55:31;;;;;;;31.53;30.37;;;19.30;99.90;;;;;;5023871;28;20641;-61
2023/09/11 04:57:58;;;;;;;57.53;55.42;;;19.30;99.90;;;;;;5025379;28;20209;-63
2023/09/11 05:00:26;;;;;;;40.43;38.90;;;19.40;99.90;;;;;;5020698;28;20232;-61
2023/09/11 05:02:52;;;;;;;28.90;27.90;;;19.40;99.90;;;;;;5021040;28;20209;-63
2023/09/11 05:05:19;;;;;;;29.73;28.60;;;19.50;99.90;;;;;;5021960;28;20218;-62
2023/09/11 05:07:46;;;;;;;58.95;56.45;;;19.60;99.90;;;;;;5024540;28;20200;-65
2023/09/11 05:10:15;;;;;;;46.75;44.97;;;19.70;99.90;;;;;;5023150;28;20233;-61
2023/09/11 05:12:42;;;;;;;22.88;21.98;;;19.70;99.90;;;;;;5019847;28;20213;-63
2023/09/11 05:15:09;;;;;;;26.55;25.55;;;19.70;99.90;;;;;;5021437;28;20233;-62
2023/09/11 05:17:36;;;;;;;39.23;37.67;;;19.70;99.90;;;;;;5020825;28;20212;-62
2023/09/11 05:20:06;;;;;;;33.17;31.92;;;19.60;99.90;;;;;;5019269;28;20566;-61
2023/09/11 05:22:33;;;;;;;38.08;36.33;;;19.60;99.90;;;;;;5024293;28;20251;-61
2023/09/11 05:25:00;;;;;;;82.82;78.90;;;19.60;99.90;;;;;;5024076;28;20295;-64
2023/09/11 05:27:29;;;;;;;28.65;27.63;;;19.60;99.90;;;;;;5021171;28;20651;-62
2023/09/11 05:29:56;;;;;;;25.25;24.35;;;19.60;99.90;;;;;;5020006;28;20225;-61
2023/09/11 05:32:23;;;;;;;27.90;26.85;;;19.50;99.90;;;;;;5021111;28;20220;-61
2023/09/11 05:34:50;;;;;;;27.52;26.38;;;19.60;99.90;;;;;;5020278;28;20210;-60
2023/09/11 05:37:16;;;;;;;34.78;33.35;;;19.60;99.90;;;;;;5014958;28;20582;-61
2023/09/11 05:39:43;;;;;;;23.25;22.38;;;19.60;99.90;;;;;;5018865;28;20274;-61
2023/09/11 05:42:10;;;;;;;18.88;18.23;;;19.60;99.90;;;;;;5020056;28;20202;-63
2023/09/11 05:44:38;;;;;;;32.22;31.02;;;19.60;99.90;;;;;;5032512;28;20205;-61
2023/09/11 05:47:06;;;;;;;34.53;33.28;;;19.60;99.90;;;;;;5030118;28;20205;-61
2023/09/11 05:49:33;;;;;;;21.33;20.58;;;19.70;99.90;;;;;;5029169;28;20222;-62
2023/09/11 05:52:00;;;;;;;40.08;38.67;;;19.70;99.90;;;;;;5030415;28;20291;-62
2023/09/11 05:54:27;;;;;;;39.80;38.40;;;19.60;99.90;;;;;;5026312;28;20239;-62
2023/09/11 05:56:54;;;;;;;38.13;36.78;;;19.60;99.90;;;;;;5025486;28;20349;-62
2023/09/11 05:59:21;;;;;;;40.67;39.17;;;19.60;99.90;;;;;;5018329;28;20215;-62
2023/09/11 06:01:49;;;;;;;33.22;32.03;;;19.60;99.90;;;;;;5034488;28;20236;-62
2023/09/11 06:04:16;;;;;;;38.58;37.15;;;19.60;99.90;;;;;;5025449;28;20205;-62
2023/09/11 06:06:43;;;;;;;35.25;34.00;;;19.60;99.90;;;;;;5022705;28;20201;-62
2023/09/11 06:09:09;;;;;;;34.25;33.05;;;19.60;99.90;;;;;;5022595;28;20205;-62
2023/09/11 06:11:36;;;;;;;35.50;34.25;;;19.60;99.90;;;;;;5025707;28;20216;-62
2023/09/11 06:14:05;;;;;;;38.90;37.47;;;19.70;99.90;;;;;;5025189;28;20221;-61
2023/09/11 06:16:32;;;;;;;30.13;29.05;;;19.70;99.90;;;;;;5022711;28;20663;-63
2023/09/11 06:19:01;;;;;;;33.38;32.13;;;19.80;99.90;;;;;;5021779;28;20211;-63
2023/09/11 06:21:28;;;;;;;32.75;31.55;;;19.80;99.90;;;;;;5023151;28;20229;-63
2023/09/11 06:23:55;;;;;;;32.65;31.35;;;19.90;99.90;;;;;;5023699;28;20700;-63
2023/09/11 06:26:22;;;;;;;36.55;35.25;;;19.90;99.90;;;;;;5026937;28;20204;-62
2023/09/11 06:28:50;;;;;;;30.27;29.15;;;19.90;99.90;;;;;;5037871;28;20749;-63
2023/09/11 06:31:17;;;;;;;32.03;30.88;;;20.10;99.90;;;;;;5045692;28;20221;-62
2023/09/11 06:33:44;;;;;;;30.83;29.70;;;20.10;99.90;;;;;;5028805;28;20239;-62
2023/09/11 06:36:13;;;;;;;31.48;30.35;;;20.20;99.90;;;;;;5033467;28;20222;-62
2023/09/11 06:38:39;;;;;;;28.80;27.65;;;20.30;99.90;;;;;;5027185;28;20208;-62
2023/09/11 06:41:06;;;;;;;31.08;29.90;;;20.40;99.90;;;;;;5022789;28;20231;-64
2023/09/11 06:43:33;;;;;;;21.23;20.50;;;20.40;99.90;;;;;;5024690;28;20219;-62
2023/09/11 06:46:00;;;;;;;28.65;27.60;;;20.50;99.90;;;;;;5025873;28;20204;-63
2023/09/11 06:48:27;;;;;;;22.48;21.65;;;20.60;99.90;;;;;;5023526;28;20208;-63
2023/09/11 06:50:54;;;;;;;25.52;24.63;;;20.60;99.90;;;;;;5022398;28;20217;-63
2023/09/11 06:53:22;;;;;;;26.45;25.48;;;20.70;99.90;;;;;;5022308;28;20296;-62
2023/09/11 06:55:49;;;;;;;30.80;29.60;;;20.80;99.90;;;;;;5023500;28;20200;-63
2023/09/11 06:58:16;;;;;;;25.67;24.75;;;20.90;99.90;;;;;;5024663;28;20236;-63
2023/09/11 07:00:43;;;;;;;23.65;22.80;;;21.00;99.90;;;;;;5021434;28;20316;-63
2023/09/11 07:03:09;;;;;;;20.58;19.88;;;21.00;99.90;;;;;;5021191;28;20213;-63
2023/09/11 07:05:37;;;;;;;18.05;17.35;;;21.10;99.90;;;;;;5024065;28;20667;-63
2023/09/11 07:08:04;;;;;;;16.27;15.68;;;21.20;99.90;;;;;;5024618;28;20443;-62
2023/09/11 07:10:32;;;;;;;17.08;16.48;;;21.40;99.90;;;;;;5022157;28;20231;-62
2023/09/11 07:12:59;;;;;;;17.27;16.67;;;21.50;99.90;;;;;;5021185;28;20241;-62
2023/09/11 07:15:26;;;;;;;17.55;16.88;;;21.60;99.90;;;;;;5022670;28;20678;-62
2023/09/11 07:17:53;;;;;;;15.07;14.57;;;21.70;99.90;;;;;;5024564;28;20575;-63
2023/09/11 07:20:21;;;;;;;17.63;17.02;;;21.80;99.90;;;;;;5023446;28;20630;-63
2023/09/11 07:22:48;;;;;;;19.08;18.38;;;22.00;99.90;;;;;;5012594;28;20206;-63
2023/09/11 07:25:17;;;;;;;16.38;15.77;;;22.10;99.90;;;;;;5021420;28;20201;-63
2023/09/11 07:27:45;;;;;;;18.88;18.17;;;22.30;99.90;;;;;;5021046;28;20229;-62
2023/09/11 07:30:12;;;;;;;19.58;18.88;;;22.50;99.90;;;;;;5020759;28;20247;-63
2023/09/11 07:32:39;;;;;;;18.95;18.25;;;22.60;99.90;;;;;;5023941;28;20200;-62
2023/09/11 07:35:07;;;;;;;17.77;17.15;;;22.70;99.90;;;;;;5024703;28;20215;-62
2023/09/11 07:37:34;;;;;;;19.02;18.33;;;22.80;99.90;;;;;;5022619;28;20240;-62
2023/09/11 07:40:01;;;;;;;17.20;16.60;;;22.90;99.90;;;;;;5021619;28;20251;-62
2023/09/11 07:42:27;;;;;;;16.58;15.98;;;23.00;99.90;;;;;;5022093;28;20295;-63
2023/09/11 07:44:56;;;;;;;16.58;15.98;;;23.00;99.90;;;;;;5024420;28;20201;-63
2023/09/11 07:47:23;;;;;;;16.63;16.02;;;23.10;99.90;;;;;;5023145;28;20299;-63
2023/09/11 07:49:49;;;;;;;16.50;15.90;;;23.30;99.90;;;;;;5021261;28;20226;-62
2023/09/11 07:52:16;;;;;;;16.45;15.85;;;23.50;99.90;;;;;;5021146;28;20228;-63
2023/09/11 07:54:43;;;;;;;15.68;15.15;;;23.60;99.90;;;;;;5020694;28;20296;-63
2023/09/11 07:57:12;;;;;;;16.52;15.93;;;23.70;99.90;;;;;;5020868;28;20688;-63
2023/09/11 07:59:39;;;;;;;17.10;16.50;;;23.90;99.90;;;;;;5024193;28;20225;-63
2023/09/11 08:02:07;;;;;;;17.10;16.40;;;23.90;99.90;;;;;;5024495;28;20242;-63
2023/09/11 08:04:35;;;;;;;17.27;16.67;;;24.00;99.90;;;;;;5021797;28;20215;-63
2023/09/11 08:07:04;;;;;;;17.70;17.10;;;24.20;99.90;;;;;;5020955;28;20588;-63
2023/09/11 08:09:31;;;;;;;16.70;16.10;;;24.30;99.90;;;;;;5022792;28;20241;-63
2023/09/11 08:11:58;;;;;;;16.20;15.50;;;24.40;99.90;;;;;;5023254;28;20204;-63
2023/09/11 08:14:24;;;;;;;16.38;15.77;;;24.50;99.90;;;;;;5023383;28;20296;-64
2023/09/11 08:16:51;;;;;;;14.32;13.82;;;24.60;99.90;;;;;;5023414;28;20702;-62
2023/09/11 08:19:19;;;;;;;14.80;14.30;;;24.80;99.90;;;;;;5023576;28;20208;-62
2023/09/11 08:21:47;;;;;;;14.75;14.25;;;24.90;99.90;;;;;;5023897;28;20256;-63
2023/09/11 08:24:13;;;;;;;14.57;14.07;;;25.00;99.90;;;;;;5015762;28;20710;-62
2023/09/11 08:26:40;;;;;;;15.15;14.63;;;25.20;99.90;;;;;;5022847;28;20224;-63
2023/09/11 08:29:10;;;;;;;15.50;14.90;;;25.20;99.90;;;;;;5023390;28;20204;-62
2023/09/11 08:31:37;;;;;;;15.90;15.30;;;25.30;99.90;;;;;;5024073;28;20221;-63
2023/09/11 08:34:04;;;;;;;16.67;16.08;;;25.40;99.90;;;;;;5023417;28;20299;-61
2023/09/11 08:36:33;;;;;;;16.08;15.48;;;25.50;99.90;;;;;;5021424;28;20208;-62
2023/09/11 08:39:00;;;;;;;17.48;16.77;;;25.50;99.90;;;;;;5020095;28;20227;-62
2023/09/11 08:41:27;;;;;;;16.83;16.23;;;25.60;99.90;;;;;;5021141;28;20328;-62
2023/09/11 08:43:54;;;;;;;19.05;18.35;;;25.70;99.90;;;;;;5023922;28;20295;-62
2023/09/11 08:46:23;;;;;;;20.70;20.00;;;25.80;99.90;;;;;;5023222;28;20204;-63
2023/09/11 08:48:55;;;;;;;17.70;17.00;;;25.90;99.90;;;;;;5019532;28;20695;-63
2023/09/11 08:51:25;;;;;;;19.05;18.35;;;26.00;99.90;;;;;;5019577;28;20226;-63
2023/09/11 08:53:56;;;;;;;18.55;17.85;;;26.10;99.90;;;;;;5020348;28;20209;-62
2023/09/11 08:56:23;;;;;;;19.27;18.58;;;26.20;99.90;;;;;;5021937;28;20746;-63
2023/09/11 08:58:52;;;;;;;17.15;16.55;;;26.20;99.90;;;;;;5024184;28;20299;-62
2023/09/11 09:01:20;;;;;;;18.20;17.50;;;26.30;99.90;;;;;;5026043;28;20307;-62
2023/09/11 09:03:48;;;;;;;19.23;18.42;;;26.50;99.90;;;;;;5021972;28;20231;-62
2023/09/11 09:06:16;;;;;;;19.98;19.27;;;26.70;99.90;;;;;;5019954;28;20299;-62
2023/09/11 09:08:44;;;;;;;18.48;17.80;;;26.80;99.90;;;;;;5020054;28;20207;-62
2023/09/11 09:11:13;;;;;;;20.58;19.77;;;26.80;99.90;;;;;;5019231;28;20221;-63
2023/09/11 09:13:40;;;;;;;18.25;17.58;;;26.90;99.90;;;;;;5021869;28;20564;-62
2023/09/11 09:16:06;;;;;;;21.20;20.45;;;27.00;99.90;;;;;;5022867;28;20208;-62
2023/09/11 09:18:33;;;;;;;20.63;19.83;;;27.10;99.90;;;;;;5024853;28;20307;-63
2023/09/11 09:21:00;;;;;;;19.73;19.02;;;27.20;99.90;;;;;;5023211;28;20229;-63
2023/09/11 09:23:35;;;;;;;22.90;22.10;;;27.30;99.90;;;;;;5023785;28;20214;-62
2023/09/11 09:26:06;;;;;;;21.58;20.77;;;27.40;99.90;;;;;;5033331;28;20685;-63
2023/09/11 09:28:35;;;;;;;19.98;19.27;;;27.50;99.90;;;;;;5026760;28;20653;-62
2023/09/11 09:31:03;;;;;;;20.42;19.63;;;27.60;99.90;;;;;;5023264;28;20307;-63
2023/09/11 09:33:31;;;;;;;20.90;20.10;;;27.60;99.90;;;;;;5030107;28;20213;-64
2023/09/11 09:35:58;;;;;;;20.27;19.58;;;27.60;99.90;;;;;;5026588;28;20208;-62
2023/09/11 09:38:26;;;;;;;21.92;21.13;;;27.60;99.90;;;;;;5025745;28;20212;-61
2023/09/11 09:40:54;;;;;;;20.02;19.33;;;27.60;99.90;;;;;;5028549;28;20327;-62
2023/09/11 09:43:22;;;;;;;23.10;22.30;;;27.90;99.90;;;;;;5023074;28;20209;-63
2023/09/11 09:45:50;;;;;;;26.00;25.00;;;28.00;99.90;;;;;;5022904;28;20214;-62
2023/09/11 09:48:18;;;;;;;23.90;23.00;;;28.20;99.90;;;;;;5022848;28;20220;-63
2023/09/11 09:50:51;;;;;;;22.42;21.55;;;28.30;99.90;;;;;;5027078;28;20231;-62
2023/09/11 09:53:23;;;;;;;26.45;25.55;;;28.30;99.90;;;;;;5026836;28;20690;-62
2023/09/11 09:55:50;;;;;;;23.35;22.55;;;28.40;99.90;;;;;;5023926;28;20252;-63
2023/09/11 09:58:19;;;;;;;23.98;23.05;;;28.50;99.90;;;;;;5024145;28;20217;-63
2023/09/11 10:00:46;;;;;;;24.58;23.67;;;28.60;99.90;;;;;;5027001;28;20228;-62
2023/09/11 10:03:15;;;;;;;26.17;25.20;;;28.60;99.90;;;;;;5025756;28;20213;-61
2023/09/11 10:05:42;;;;;;;25.58;24.60;;;28.70;99.90;;;;;;5026311;28;20211;-62
2023/09/11 10:08:09;;;;;;;23.70;22.80;;;28.70;99.90;;;;;;5026095;28;20209;-62
2023/09/11 10:10:36;;;;;;;26.52;25.52;;;28.70;99.90;;;;;;5024850;28;20229;-63
2023/09/11 10:13:07;;;;;;;23.83;22.92;;;28.90;99.90;;;;;;5022738;28;20213;-63
2023/09/11 10:15:35;;;;;;;23.92;23.05;;;29.10;99.90;;;;;;5022418;28;20325;-64
2023/09/11 10:18:03;;;;;;;22.98;22.17;;;29.20;99.90;;;;;;5023412;28;20247;-63
2023/09/11 10:20:32;;;;;;;23.92;23.05;;;29.20;99.90;;;;;;5023190;28;20221;-63
2023/09/11 10:23:01;;;;;;;25.70;24.73;;;29.30;99.90;;;;;;5026040;28;20224;-63
2023/09/11 10:25:30;;;;;;;26.58;25.58;;;29.40;99.90;;;;;;5024945;28;20750;-62
2023/09/11 10:28:02;;;;;;;27.90;26.90;;;29.30;99.90;;;;;;5022302;28;20216;-63
2023/09/11 10:30:35;;;;;;;27.92;26.92;;;29.30;99.90;;;;;;5022005;28;20572;-62
2023/09/11 10:33:06;;;;;;;27.65;26.52;;;29.30;99.90;;;;;;5020724;28;20300;-62
2023/09/11 10:35:41;;;;;;;24.55;23.65;;;29.50;99.90;;;;;;5022959;28;20209;-63
2023/09/11 10:38:09;;;;;;;28.25;27.10;;;29.70;99.90;;;;;;5031497;28;20507;-63
2023/09/11 10:40:39;;;;;;;32.08;30.88;;;29.70;99.90;;;;;;5026052;28;20300;-63
2023/09/11 10:43:07;;;;;;;40.60;39.13;;;29.60;99.90;;;;;;5023992;28;20292;-62
2023/09/11 10:45:33;;;;;;;33.38;32.15;;;29.70;99.90;;;;;;5024518;28;20201;-62
2023/09/11 10:48:01;;;;;;;32.88;31.67;;;29.70;99.90;;;;;;5026241;28;20284;-63
2023/09/11 10:50:32;;;;;;;33.63;32.42;;;29.80;99.90;;;;;;5024939;28;20224;-63
2023/09/11 10:53:00;;;;;;;39.53;38.03;;;29.80;99.90;;;;;;5021493;28;20213;-63
2023/09/11 10:55:27;;;;;;;33.25;32.03;;;29.80;99.90;;;;;;5021575;28;20201;-62
2023/09/11 10:57:58;;;;;;;36.42;35.13;;;30.00;99.90;;;;;;5025493;28;20204;-63
2023/09/11 11:00:25;;;;;;;54.40;52.45;;;30.20;99.90;;;;;;5026280;28;20230;-63
2023/09/11 11:02:56;;;;;;;46.45;44.75;;;30.20;99.90;;;;;;5021404;28;20221;-64
2023/09/11 11:05:23;;;;;;;53.35;51.42;;;30.30;99.90;;;;;;5021850;28;20201;-63
2023/09/11 11:07:52;;;;;;;65.20;62.67;;;30.40;99.90;;;;;;5024284;28;20670;-63
2023/09/11 11:10:20;;;;;;;65.47;63.13;;;30.50;99.90;;;;;;5026519;28;20540;-63
2023/09/11 11:12:47;;;;;;;55.25;53.15;;;30.50;99.90;;;;;;5024578;28;20208;-63
2023/09/11 11:15:25;;;;;;;55.58;53.53;;;30.60;99.90;;;;;;5019005;28;20215;-64
2023/09/11 11:18:11;;;;;;;56.63;54.60;;;30.60;99.90;;;;;;5022108;28;20197;-63
2023/09/11 11:20:38;;;;;;;58.28;56.03;;;30.60;99.90;;;;;;5022554;28;20221;-63
2023/09/11 11:23:09;;;;;;;78.35;75.53;;;30.70;99.90;;;;;;5025635;28;20250;-63
2023/09/11 11:25:40;;;;;;;63.55;61.25;;;30.80;99.90;;;;;;5024724;28;20211;-64
2023/09/11 11:28:08;;;;;;;62.78;60.50;;;30.90;99.90;;;;;;5028414;28;20206;-63
2023/09/11 11:30:36;;;;;;;62.63;60.35;;;30.90;99.90;;;;;;5024492;28;20702;-64
2023/09/11 11:33:05;;;;;;;73.50;70.88;;;31.00;99.90;;;;;;5022191;28;20228;-63
2023/09/11 11:35:32;;;;;;;79.43;76.47;;;31.00;99.90;;;;;;5022782;28;20205;-63
2023/09/11 11:37:59;;;;;;;85.90;82.85;;;31.10;99.90;;;;;;5026070;28;20209;-63
2023/09/11 11:40:27;;;;;;;84.95;81.90;;;31.20;99.90;;;;;;5024984;28;20319;-63
2023/09/11 11:42:55;;;;;;;87.43;84.18;;;31.20;99.90;;;;;;5023262;28;20295;-64
2023/09/11 11:45:22;;;;;;;86.30;83.20;;;31.10;99.90;;;;;;5022388;28;20201;-63
2023/09/11 11:47:51;;;;;;;87.05;83.95;;;31.10;99.90;;;;;;5021932;28;20297;-64
2023/09/11 11:50:20;;;;;;;94.28;90.97;;;31.10;99.90;;;;;;5021535;28;20688;-64
2023/09/11 11:52:47;;;;;;;65.38;62.95;;;31.10;99.90;;;;;;5021569;28;20236;-63
2023/09/11 11:55:19;;;;;;;87.53;84.43;;;31.30;99.90;;;;;;5021811;28;20211;-63
2023/09/11 11:57:50;;;;;;;67.78;65.35;;;31.40;99.90;;;;;;5021638;28;20215;-64
2023/09/11 12:00:18;;;;;;;92.75;89.47;;;31.50;99.90;;;;;;5021187;28;20247;-63
2023/09/11 12:02:45;;;;;;;82.43;79.50;;;31.60;99.90;;;;;;5022846;28;20240;-63
2023/09/11 12:05:13;;;;;;;82.07;79.15;;;31.60;99.90;;;;;;5024675;28;20207;-63
2023/09/11 12:07:40;;;;;;;68.90;66.45;;;31.70;99.90;;;;;;5022914;28;20201;-61
2023/09/11 12:10:10;;;;;;;101.85;98.20;;;31.80;99.90;;;;;;5020702;28;20231;-63
2023/09/11 12:12:40;;;;;;;73.97;71.20;;;31.80;99.90;;;;;;5023296;28;20215;-62
2023/09/11 12:15:08;;;;;;;86.72;83.65;;;31.80;99.90;;;;;;5019324;28;20941;-63
2023/09/11 12:17:36;;;;;;;78.22;75.43;;;31.80;99.90;;;;;;5026976;28;20211;-64
2023/09/11 12:20:14;;;;;;;98.45;94.93;;;32.00;99.90;;;;;;5030249;28;20216;-63
2023/09/11 12:22:43;;;;;;;86.72;83.65;;;32.10;99.90;;;;;;5029858;28;20222;-63
2023/09/11 12:25:10;;;;;;;80.55;77.68;;;32.10;99.90;;;;;;5030448;28;20748;-63
2023/09/11 12:27:37;;;;;;;108.28;104.43;;;32.10;99.90;;;;;;5021770;28;20215;-63
2023/09/11 12:30:08;;;;;;;110.55;106.60;;;32.10;99.90;;;;;;5020031;28;20222;-66
2023/09/11 12:32:36;;;;;;;106.38;102.57;;;31.90;99.90;;;;;;5029189;28;20283;-67